sensor_id;sensor_type;location;lat;lon;timestamp;P1;durP1;ratioP1;P2;durP2;ratioP2
18042;SDS011;9146;48.074;11.968;2022-12-20T00:02:18;15.77;;;10.33;;
18042;SDS011;9146;48.074;11.968;2022-12-20T00:04:45;17.63;;;11.97;;
18042;SDS011;9146;48.074;11.968;2022-12-20T00:07:12;18.70;;;10.77;;
18042;SDS011;9146;48.074;11.968;2022-12-20T00:09:40;15.00;;;9.87;;
18042;SDS011;9146;48.074;11.968;2022-12-20T00:12:07;16.70;;;10.40;;
18042;SDS011;9146;48.074;11.968;2022-12-20T00:14:34;21.57;;;11.40;;
18042;SDS011;9146;48.074;11.968;2022-12-20T00:17:01;17.47;;;10.37;;
18042;SDS011;9146;48.074;11.968;2022-12-20T00:19:27;17.73;;;10.60;;
18042;SDS011;9146;48.074;11.968;2022-12-20T00:21:54;18.20;;;11.80;;
18042;SDS011;9146;48.074;11.968;2022-12-20T00:24:21;19.67;;;11.40;;
18042;SDS011;9146;48.074;11.968;2022-12-20T00:26:49;12.20;;;8.90;;
18042;SDS011;9146;48.074;11.968;2022-12-20T00:29:16;14.70;;;10.10;;
18042;SDS011;9146;48.074;11.968;2022-12-20T00:31:43;13.63;;;9.60;;
18042;SDS011;9146;48.074;11.968;2022-12-20T00:34:10;17.50;;;10.53;;
18042;SDS011;9146;48.074;11.968;2022-12-20T00:36:38;12.60;;;7.43;;
18042;SDS011;9146;48.074;11.968;2022-12-20T00:39:05;15.33;;;10.40;;
18042;SDS011;9146;48.074;11.968;2022-12-20T00:41:32;15.60;;;10.80;;
18042;SDS011;9146;48.074;11.968;2022-12-20T00:44:01;15.07;;;10.60;;
18042;SDS011;9146;48.074;11.968;2022-12-20T00:46:29;16.93;;;11.10;;
18042;SDS011;9146;48.074;11.968;2022-12-20T00:48:56;15.90;;;10.97;;
18042;SDS011;9146;48.074;11.968;2022-12-20T00:51:24;16.57;;;10.87;;
18042;SDS011;9146;48.074;11.968;2022-12-20T00:53:52;21.30;;;11.37;;
18042;SDS011;9146;48.074;11.968;2022-12-20T00:56:20;17.23;;;11.10;;
18042;SDS011;9146;48.074;11.968;2022-12-20T00:58:47;15.53;;;10.47;;
18042;SDS011;9146;48.074;11.968;2022-12-20T01:01:17;15.93;;;9.67;;
18042;SDS011;9146;48.074;11.968;2022-12-20T01:03:45;12.87;;;9.50;;
18042;SDS011;9146;48.074;11.968;2022-12-20T01:06:12;16.40;;;10.53;;
18042;SDS011;9146;48.074;11.968;2022-12-20T01:08:39;13.00;;;8.90;;
18042;SDS011;9146;48.074;11.968;2022-12-20T01:11:07;15.77;;;9.60;;
18042;SDS011;9146;48.074;11.968;2022-12-20T01:13:37;18.03;;;10.17;;
18042;SDS011;9146;48.074;11.968;2022-12-20T01:16:06;18.60;;;12.20;;
18042;SDS011;9146;48.074;11.968;2022-12-20T01:18:37;16.50;;;11.77;;
18042;SDS011;9146;48.074;11.968;2022-12-20T01:21:05;16.00;;;11.17;;
18042;SDS011;9146;48.074;11.968;2022-12-20T01:23:33;21.00;;;11.83;;
18042;SDS011;9146;48.074;11.968;2022-12-20T01:26:02;19.43;;;10.83;;
18042;SDS011;9146;48.074;11.968;2022-12-20T01:28:33;21.00;;;12.00;;
18042;SDS011;9146;48.074;11.968;2022-12-20T01:31:00;20.77;;;11.47;;
18042;SDS011;9146;48.074;11.968;2022-12-20T01:33:27;22.83;;;13.23;;
18042;SDS011;9146;48.074;11.968;2022-12-20T01:35:56;30.60;;;14.97;;
18042;SDS011;9146;48.074;11.968;2022-12-20T01:38:24;19.00;;;12.50;;
18042;SDS011;9146;48.074;11.968;2022-12-20T01:40:51;23.00;;;13.63;;
18042;SDS011;9146;48.074;11.968;2022-12-20T01:43:20;24.30;;;13.67;;
18042;SDS011;9146;48.074;11.968;2022-12-20T01:45:47;30.13;;;15.30;;
18042;SDS011;9146;48.074;11.968;2022-12-20T01:48:15;21.57;;;12.57;;
18042;SDS011;9146;48.074;11.968;2022-12-20T01:50:50;26.63;;;14.20;;
18042;SDS011;9146;48.074;11.968;2022-12-20T01:53:20;23.60;;;14.20;;
18042;SDS011;9146;48.074;11.968;2022-12-20T01:55:49;21.33;;;13.07;;
18042;SDS011;9146;48.074;11.968;2022-12-20T01:58:16;16.90;;;11.80;;
18042;SDS011;9146;48.074;11.968;2022-12-20T02:00:45;22.57;;;12.50;;
18042;SDS011;9146;48.074;11.968;2022-12-20T02:03:12;19.20;;;12.77;;
18042;SDS011;9146;48.074;11.968;2022-12-20T02:05:42;17.87;;;11.43;;
18042;SDS011;9146;48.074;11.968;2022-12-20T02:08:11;14.37;;;10.23;;
18042;SDS011;9146;48.074;11.968;2022-12-20T02:10:45;18.50;;;12.23;;
18042;SDS011;9146;48.074;11.968;2022-12-20T02:13:23;24.50;;;12.87;;
18042;SDS011;9146;48.074;11.968;2022-12-20T02:15:58;20.63;;;11.90;;
18042;SDS011;9146;48.074;11.968;2022-12-20T02:18:26;20.07;;;12.10;;
18042;SDS011;9146;48.074;11.968;2022-12-20T02:27:13;18.87;;;12.17;;
18042;SDS011;9146;48.074;11.968;2022-12-20T02:30:04;13.70;;;9.87;;
18042;SDS011;9146;48.074;11.968;2022-12-20T02:32:35;18.50;;;10.53;;
18042;SDS011;9146;48.074;11.968;2022-12-20T02:35:06;20.30;;;12.43;;
18042;SDS011;9146;48.074;11.968;2022-12-20T02:37:35;15.90;;;11.93;;
18042;SDS011;9146;48.074;11.968;2022-12-20T02:40:02;21.30;;;11.50;;
18042;SDS011;9146;48.074;11.968;2022-12-20T02:42:30;19.83;;;13.47;;
18042;SDS011;9146;48.074;11.968;2022-12-20T02:44:59;18.53;;;12.70;;
18042;SDS011;9146;48.074;11.968;2022-12-20T02:47:41;19.20;;;11.80;;
18042;SDS011;9146;48.074;11.968;2022-12-20T02:50:13;18.67;;;12.30;;
18042;SDS011;9146;48.074;11.968;2022-12-20T02:52:42;18.47;;;11.30;;
18042;SDS011;9146;48.074;11.968;2022-12-20T02:55:09;15.03;;;10.77;;
18042;SDS011;9146;48.074;11.968;2022-12-20T02:57:38;17.73;;;11.07;;
18042;SDS011;9146;48.074;11.968;2022-12-20T03:00:14;14.80;;;10.53;;
18042;SDS011;9146;48.074;11.968;2022-12-20T03:02:43;15.77;;;9.73;;
18042;SDS011;9146;48.074;11.968;2022-12-20T03:05:30;11.60;;;9.30;;
18042;SDS011;9146;48.074;11.968;2022-12-20T03:07:59;18.27;;;10.90;;
18042;SDS011;9146;48.074;11.968;2022-12-20T03:10:26;15.00;;;10.73;;
18042;SDS011;9146;48.074;11.968;2022-12-20T03:12:53;18.00;;;11.20;;
18042;SDS011;9146;48.074;11.968;2022-12-20T03:15:21;16.60;;;11.70;;
18042;SDS011;9146;48.074;11.968;2022-12-20T03:17:48;22.13;;;13.37;;
18042;SDS011;9146;48.074;11.968;2022-12-20T03:20:15;17.93;;;11.97;;
18042;SDS011;9146;48.074;11.968;2022-12-20T03:22:42;19.00;;;11.50;;
18042;SDS011;9146;48.074;11.968;2022-12-20T03:25:09;15.37;;;10.77;;
18042;SDS011;9146;48.074;11.968;2022-12-20T03:27:36;23.73;;;11.90;;
18042;SDS011;9146;48.074;11.968;2022-12-20T03:30:03;24.80;;;14.27;;
18042;SDS011;9146;48.074;11.968;2022-12-20T03:32:33;18.40;;;12.20;;
18042;SDS011;9146;48.074;11.968;2022-12-20T03:35:00;20.80;;;13.03;;
18042;SDS011;9146;48.074;11.968;2022-12-20T03:37:27;22.73;;;13.73;;
18042;SDS011;9146;48.074;11.968;2022-12-20T03:39:54;20.83;;;13.27;;
18042;SDS011;9146;48.074;11.968;2022-12-20T03:42:20;21.40;;;12.83;;
18042;SDS011;9146;48.074;11.968;2022-12-20T03:44:47;18.67;;;12.30;;
18042;SDS011;9146;48.074;11.968;2022-12-20T03:47:14;23.93;;;13.93;;
18042;SDS011;9146;48.074;11.968;2022-12-20T03:49:42;25.67;;;15.30;;
18042;SDS011;9146;48.074;11.968;2022-12-20T03:52:09;20.53;;;12.70;;
18042;SDS011;9146;48.074;11.968;2022-12-20T03:54:37;20.30;;;13.90;;
18042;SDS011;9146;48.074;11.968;2022-12-20T03:57:05;23.97;;;14.77;;
18042;SDS011;9146;48.074;11.968;2022-12-20T03:59:32;22.80;;;12.77;;
18042;SDS011;9146;48.074;11.968;2022-12-20T04:01:59;22.30;;;12.57;;
18042;SDS011;9146;48.074;11.968;2022-12-20T04:04:27;20.57;;;12.77;;
18042;SDS011;9146;48.074;11.968;2022-12-20T04:06:55;20.23;;;12.47;;
18042;SDS011;9146;48.074;11.968;2022-12-20T04:09:22;17.77;;;11.30;;
18042;SDS011;9146;48.074;11.968;2022-12-20T04:11:49;16.93;;;10.37;;
18042;SDS011;9146;48.074;11.968;2022-12-20T04:14:16;18.87;;;10.47;;
18042;SDS011;9146;48.074;11.968;2022-12-20T04:16:42;16.50;;;10.50;;
18042;SDS011;9146;48.074;11.968;2022-12-20T04:19:10;17.63;;;12.03;;
18042;SDS011;9146;48.074;11.968;2022-12-20T04:21:37;18.07;;;9.80;;
18042;SDS011;9146;48.074;11.968;2022-12-20T04:24:06;19.17;;;11.70;;
18042;SDS011;9146;48.074;11.968;2022-12-20T04:26:34;17.20;;;11.60;;
18042;SDS011;9146;48.074;11.968;2022-12-20T04:29:01;13.03;;;10.13;;
18042;SDS011;9146;48.074;11.968;2022-12-20T04:31:28;20.53;;;12.47;;
18042;SDS011;9146;48.074;11.968;2022-12-20T04:33:55;16.20;;;11.10;;
18042;SDS011;9146;48.074;11.968;2022-12-20T04:36:22;18.93;;;11.00;;
18042;SDS011;9146;48.074;11.968;2022-12-20T04:38:49;15.50;;;9.40;;
18042;SDS011;9146;48.074;11.968;2022-12-20T04:41:17;13.90;;;9.30;;
18042;SDS011;9146;48.074;11.968;2022-12-20T04:43:51;17.00;;;10.70;;
18042;SDS011;9146;48.074;11.968;2022-12-20T04:46:20;15.00;;;11.37;;
18042;SDS011;9146;48.074;11.968;2022-12-20T04:48:48;17.63;;;10.67;;
18042;SDS011;9146;48.074;11.968;2022-12-20T04:51:15;15.50;;;10.60;;
18042;SDS011;9146;48.074;11.968;2022-12-20T04:53:42;15.03;;;9.53;;
18042;SDS011;9146;48.074;11.968;2022-12-20T04:56:14;15.67;;;9.40;;
18042;SDS011;9146;48.074;11.968;2022-12-20T04:58:44;13.73;;;9.50;;
18042;SDS011;9146;48.074;11.968;2022-12-20T05:01:12;14.30;;;9.30;;
18042;SDS011;9146;48.074;11.968;2022-12-20T05:03:39;13.93;;;9.60;;
18042;SDS011;9146;48.074;11.968;2022-12-20T05:06:07;16.90;;;9.40;;
18042;SDS011;9146;48.074;11.968;2022-12-20T05:08:34;13.77;;;9.30;;
18042;SDS011;9146;48.074;11.968;2022-12-20T05:11:01;15.20;;;10.17;;
18042;SDS011;9146;48.074;11.968;2022-12-20T05:13:28;15.60;;;10.10;;
18042;SDS011;9146;48.074;11.968;2022-12-20T05:15:56;14.00;;;9.10;;
18042;SDS011;9146;48.074;11.968;2022-12-20T05:18:24;16.43;;;9.40;;
18042;SDS011;9146;48.074;11.968;2022-12-20T05:20:53;14.00;;;8.87;;
18042;SDS011;9146;48.074;11.968;2022-12-20T05:23:35;14.77;;;10.30;;
18042;SDS011;9146;48.074;11.968;2022-12-20T05:26:20;14.70;;;8.17;;
18042;SDS011;9146;48.074;11.968;2022-12-20T05:28:48;15.53;;;8.73;;
18042;SDS011;9146;48.074;11.968;2022-12-20T05:31:17;13.27;;;8.20;;
18042;SDS011;9146;48.074;11.968;2022-12-20T05:33:44;15.47;;;8.90;;
18042;SDS011;9146;48.074;11.968;2022-12-20T05:36:11;9.47;;;7.17;;
18042;SDS011;9146;48.074;11.968;2022-12-20T05:38:38;12.80;;;8.43;;
18042;SDS011;9146;48.074;11.968;2022-12-20T05:41:05;12.47;;;8.73;;
18042;SDS011;9146;48.074;11.968;2022-12-20T05:43:32;14.57;;;9.70;;
18042;SDS011;9146;48.074;11.968;2022-12-20T05:45:59;13.63;;;9.60;;
18042;SDS011;9146;48.074;11.968;2022-12-20T05:48:28;10.23;;;7.03;;
18042;SDS011;9146;48.074;11.968;2022-12-20T05:50:55;11.20;;;8.77;;
18042;SDS011;9146;48.074;11.968;2022-12-20T05:53:21;12.23;;;7.77;;
18042;SDS011;9146;48.074;11.968;2022-12-20T05:55:49;12.57;;;8.67;;
18042;SDS011;9146;48.074;11.968;2022-12-20T05:58:18;10.60;;;7.40;;
18042;SDS011;9146;48.074;11.968;2022-12-20T06:00:45;10.87;;;7.30;;
18042;SDS011;9146;48.074;11.968;2022-12-20T06:03:12;11.90;;;7.80;;
18042;SDS011;9146;48.074;11.968;2022-12-20T06:05:42;14.63;;;8.80;;
18042;SDS011;9146;48.074;11.968;2022-12-20T06:08:09;13.90;;;8.20;;
18042;SDS011;9146;48.074;11.968;2022-12-20T06:10:36;10.27;;;7.50;;
18042;SDS011;9146;48.074;11.968;2022-12-20T06:13:05;12.27;;;7.87;;
18042;SDS011;9146;48.074;11.968;2022-12-20T06:15:33;9.20;;;8.03;;
18042;SDS011;9146;48.074;11.968;2022-12-20T06:18:00;10.23;;;8.10;;
18042;SDS011;9146;48.074;11.968;2022-12-20T06:20:27;9.60;;;6.60;;
18042;SDS011;9146;48.074;11.968;2022-12-20T06:22:56;9.87;;;7.53;;
18042;SDS011;9146;48.074;11.968;2022-12-20T06:25:23;11.43;;;7.57;;
18042;SDS011;9146;48.074;11.968;2022-12-20T06:27:51;15.47;;;9.47;;
18042;SDS011;9146;48.074;11.968;2022-12-20T06:30:18;16.73;;;10.47;;
18042;SDS011;9146;48.074;11.968;2022-12-20T06:32:46;13.13;;;10.30;;
18042;SDS011;9146;48.074;11.968;2022-12-20T06:35:13;12.73;;;9.57;;
18042;SDS011;9146;48.074;11.968;2022-12-20T06:37:40;12.87;;;8.57;;
18042;SDS011;9146;48.074;11.968;2022-12-20T06:40:11;14.73;;;9.67;;
18042;SDS011;9146;48.074;11.968;2022-12-20T06:42:38;13.77;;;8.57;;
18042;SDS011;9146;48.074;11.968;2022-12-20T06:45:06;14.87;;;10.90;;
18042;SDS011;9146;48.074;11.968;2022-12-20T06:47:34;17.33;;;10.57;;
18042;SDS011;9146;48.074;11.968;2022-12-20T06:50:01;17.97;;;11.27;;
18042;SDS011;9146;48.074;11.968;2022-12-20T06:52:28;17.30;;;10.47;;
18042;SDS011;9146;48.074;11.968;2022-12-20T06:54:55;16.77;;;11.00;;
18042;SDS011;9146;48.074;11.968;2022-12-20T06:57:23;15.33;;;9.73;;
18042;SDS011;9146;48.074;11.968;2022-12-20T06:59:50;13.70;;;9.43;;
18042;SDS011;9146;48.074;11.968;2022-12-20T07:02:17;16.17;;;10.07;;
18042;SDS011;9146;48.074;11.968;2022-12-20T07:04:44;16.60;;;11.00;;
18042;SDS011;9146;48.074;11.968;2022-12-20T07:07:11;19.13;;;11.27;;
18042;SDS011;9146;48.074;11.968;2022-12-20T07:09:38;17.30;;;10.17;;
18042;SDS011;9146;48.074;11.968;2022-12-20T07:12:07;15.43;;;9.77;;
18042;SDS011;9146;48.074;11.968;2022-12-20T07:14:35;15.53;;;10.00;;
18042;SDS011;9146;48.074;11.968;2022-12-20T07:17:02;12.40;;;8.90;;
18042;SDS011;9146;48.074;11.968;2022-12-20T07:19:29;19.53;;;10.00;;
18042;SDS011;9146;48.074;11.968;2022-12-20T07:21:56;21.63;;;12.53;;
18042;SDS011;9146;48.074;11.968;2022-12-20T07:24:23;16.83;;;10.80;;
18042;SDS011;9146;48.074;11.968;2022-12-20T07:26:50;13.87;;;10.00;;
18042;SDS011;9146;48.074;11.968;2022-12-20T07:29:17;17.37;;;11.57;;
18042;SDS011;9146;48.074;11.968;2022-12-20T07:31:45;14.70;;;9.93;;
18042;SDS011;9146;48.074;11.968;2022-12-20T07:34:12;15.77;;;9.70;;
18042;SDS011;9146;48.074;11.968;2022-12-20T07:36:39;13.63;;;10.30;;
18042;SDS011;9146;48.074;11.968;2022-12-20T07:39:06;14.03;;;10.40;;
18042;SDS011;9146;48.074;11.968;2022-12-20T07:41:33;15.20;;;10.50;;
18042;SDS011;9146;48.074;11.968;2022-12-20T07:44:00;14.73;;;9.83;;
18042;SDS011;9146;48.074;11.968;2022-12-20T07:46:27;13.03;;;10.50;;
18042;SDS011;9146;48.074;11.968;2022-12-20T07:48:55;17.33;;;11.97;;
18042;SDS011;9146;48.074;11.968;2022-12-20T07:51:23;20.27;;;12.97;;
18042;SDS011;9146;48.074;11.968;2022-12-20T07:53:53;20.50;;;12.80;;
18042;SDS011;9146;48.074;11.968;2022-12-20T07:56:24;24.63;;;13.17;;
18042;SDS011;9146;48.074;11.968;2022-12-20T07:58:52;17.17;;;10.83;;
18042;SDS011;9146;48.074;11.968;2022-12-20T08:01:23;19.33;;;12.47;;
18042;SDS011;9146;48.074;11.968;2022-12-20T08:03:51;19.37;;;12.20;;
18042;SDS011;9146;48.074;11.968;2022-12-20T08:06:23;16.63;;;11.27;;
18042;SDS011;9146;48.074;11.968;2022-12-20T08:08:52;13.77;;;9.60;;
18042;SDS011;9146;48.074;11.968;2022-12-20T08:11:22;14.70;;;9.77;;
18042;SDS011;9146;48.074;11.968;2022-12-20T08:13:50;17.10;;;11.27;;
18042;SDS011;9146;48.074;11.968;2022-12-20T08:16:17;17.27;;;10.50;;
18042;SDS011;9146;48.074;11.968;2022-12-20T08:18:44;15.17;;;10.30;;
18042;SDS011;9146;48.074;11.968;2022-12-20T08:21:11;16.87;;;10.53;;
18042;SDS011;9146;48.074;11.968;2022-12-20T08:23:40;19.10;;;11.40;;
18042;SDS011;9146;48.074;11.968;2022-12-20T08:26:06;22.20;;;12.80;;
18042;SDS011;9146;48.074;11.968;2022-12-20T08:28:33;22.60;;;12.47;;
18042;SDS011;9146;48.074;11.968;2022-12-20T08:31:00;19.80;;;13.17;;
18042;SDS011;9146;48.074;11.968;2022-12-20T08:33:28;16.60;;;12.33;;
18042;SDS011;9146;48.074;11.968;2022-12-20T08:35:58;19.63;;;12.43;;
18042;SDS011;9146;48.074;11.968;2022-12-20T08:38:26;18.50;;;10.93;;
18042;SDS011;9146;48.074;11.968;2022-12-20T08:41:00;18.53;;;11.47;;
18042;SDS011;9146;48.074;11.968;2022-12-20T08:43:27;16.53;;;12.30;;
18042;SDS011;9146;48.074;11.968;2022-12-20T08:45:54;23.40;;;12.93;;
18042;SDS011;9146;48.074;11.968;2022-12-20T08:48:21;17.73;;;13.07;;
18042;SDS011;9146;48.074;11.968;2022-12-20T08:50:52;19.70;;;12.70;;
18042;SDS011;9146;48.074;11.968;2022-12-20T08:53:20;17.50;;;11.97;;
18042;SDS011;9146;48.074;11.968;2022-12-20T08:55:47;15.67;;;10.93;;
18042;SDS011;9146;48.074;11.968;2022-12-20T08:58:15;16.07;;;10.50;;
18042;SDS011;9146;48.074;11.968;2022-12-20T09:00:42;19.73;;;12.93;;
18042;SDS011;9146;48.074;11.968;2022-12-20T09:03:09;18.87;;;11.53;;
18042;SDS011;9146;48.074;11.968;2022-12-20T09:05:42;20.00;;;13.03;;
18042;SDS011;9146;48.074;11.968;2022-12-20T09:08:10;18.93;;;12.30;;
18042;SDS011;9146;48.074;11.968;2022-12-20T09:10:37;16.93;;;9.73;;
18042;SDS011;9146;48.074;11.968;2022-12-20T09:13:04;15.50;;;11.40;;
18042;SDS011;9146;48.074;11.968;2022-12-20T09:15:33;14.60;;;10.90;;
18042;SDS011;9146;48.074;11.968;2022-12-20T09:18:01;18.03;;;11.37;;
18042;SDS011;9146;48.074;11.968;2022-12-20T09:20:28;15.90;;;11.57;;
18042;SDS011;9146;48.074;11.968;2022-12-20T09:22:56;18.60;;;12.63;;
18042;SDS011;9146;48.074;11.968;2022-12-20T09:25:23;19.30;;;12.77;;
18042;SDS011;9146;48.074;11.968;2022-12-20T09:27:51;16.50;;;11.97;;
18042;SDS011;9146;48.074;11.968;2022-12-20T09:30:19;16.90;;;12.77;;
18042;SDS011;9146;48.074;11.968;2022-12-20T09:32:47;17.93;;;12.47;;
18042;SDS011;9146;48.074;11.968;2022-12-20T09:35:14;15.30;;;11.13;;
18042;SDS011;9146;48.074;11.968;2022-12-20T09:37:41;18.50;;;12.23;;
18042;SDS011;9146;48.074;11.968;2022-12-20T09:40:09;13.13;;;11.00;;
18042;SDS011;9146;48.074;11.968;2022-12-20T09:42:43;14.60;;;10.70;;
18042;SDS011;9146;48.074;11.968;2022-12-20T09:45:11;13.57;;;10.90;;
18042;SDS011;9146;48.074;11.968;2022-12-20T09:47:45;13.87;;;11.00;;
18042;SDS011;9146;48.074;11.968;2022-12-20T09:50:14;12.70;;;10.87;;
18042;SDS011;9146;48.074;11.968;2022-12-20T09:52:47;17.50;;;11.43;;
18042;SDS011;9146;48.074;11.968;2022-12-20T09:55:25;18.17;;;12.83;;
18042;SDS011;9146;48.074;11.968;2022-12-20T09:58:00;16.70;;;12.30;;
18042;SDS011;9146;48.074;11.968;2022-12-20T10:00:48;20.60;;;13.30;;
18042;SDS011;9146;48.074;11.968;2022-12-20T10:03:19;18.47;;;13.17;;
18042;SDS011;9146;48.074;11.968;2022-12-20T10:05:49;14.83;;;11.70;;
18042;SDS011;9146;48.074;11.968;2022-12-20T10:08:23;16.73;;;12.00;;
18042;SDS011;9146;48.074;11.968;2022-12-20T10:10:58;15.97;;;12.23;;
18042;SDS011;9146;48.074;11.968;2022-12-20T10:13:35;20.23;;;12.50;;
18042;SDS011;9146;48.074;11.968;2022-12-20T10:16:17;15.20;;;12.23;;
18042;SDS011;9146;48.074;11.968;2022-12-20T10:18:58;15.23;;;11.60;;
18042;SDS011;9146;48.074;11.968;2022-12-20T10:21:37;16.63;;;11.87;;
18042;SDS011;9146;48.074;11.968;2022-12-20T10:24:10;21.17;;;13.63;;
18042;SDS011;9146;48.074;11.968;2022-12-20T10:26:41;20.63;;;15.27;;
18042;SDS011;9146;48.074;11.968;2022-12-20T10:29:08;18.13;;;13.80;;
18042;SDS011;9146;48.074;11.968;2022-12-20T10:31:37;53.83;;;27.70;;
18042;SDS011;9146;48.074;11.968;2022-12-20T10:34:05;40.23;;;25.20;;
18042;SDS011;9146;48.074;11.968;2022-12-20T10:36:33;58.77;;;31.57;;
18042;SDS011;9146;48.074;11.968;2022-12-20T10:39:03;52.00;;;26.73;;
18042;SDS011;9146;48.074;11.968;2022-12-20T10:41:31;27.73;;;19.03;;
18042;SDS011;9146;48.074;11.968;2022-12-20T10:44:15;28.40;;;18.33;;
18042;SDS011;9146;48.074;11.968;2022-12-20T10:46:45;24.67;;;17.80;;
18042;SDS011;9146;48.074;11.968;2022-12-20T10:49:27;30.90;;;20.77;;
18042;SDS011;9146;48.074;11.968;2022-12-20T10:51:56;24.53;;;16.00;;
18042;SDS011;9146;48.074;11.968;2022-12-20T10:54:28;19.57;;;13.93;;
18042;SDS011;9146;48.074;11.968;2022-12-20T10:56:58;18.37;;;14.13;;
18042;SDS011;9146;48.074;11.968;2022-12-20T10:59:28;20.40;;;14.20;;
18042;SDS011;9146;48.074;11.968;2022-12-20T11:01:58;23.03;;;12.73;;
18042;SDS011;9146;48.074;11.968;2022-12-20T11:04:27;17.60;;;12.13;;
18042;SDS011;9146;48.074;11.968;2022-12-20T11:06:55;16.30;;;13.23;;
18042;SDS011;9146;48.074;11.968;2022-12-20T11:09:24;15.57;;;11.90;;
18042;SDS011;9146;48.074;11.968;2022-12-20T11:12:01;18.07;;;12.40;;
18042;SDS011;9146;48.074;11.968;2022-12-20T11:14:30;15.77;;;11.57;;
18042;SDS011;9146;48.074;11.968;2022-12-20T11:16:59;14.90;;;11.80;;
18042;SDS011;9146;48.074;11.968;2022-12-20T11:22:25;15.60;;;10.67;;
18042;SDS011;9146;48.074;11.968;2022-12-20T11:25:05;15.93;;;11.27;;
18042;SDS011;9146;48.074;11.968;2022-12-20T11:27:50;15.10;;;11.57;;
18042;SDS011;9146;48.074;11.968;2022-12-20T11:30:32;14.13;;;10.47;;
18042;SDS011;9146;48.074;11.968;2022-12-20T11:33:13;18.43;;;12.00;;
18042;SDS011;9146;48.074;11.968;2022-12-20T11:36:05;14.00;;;11.20;;
18042;SDS011;9146;48.074;11.968;2022-12-20T11:38:38;14.50;;;10.63;;
18042;SDS011;9146;48.074;11.968;2022-12-20T11:41:10;17.70;;;12.73;;
18042;SDS011;9146;48.074;11.968;2022-12-20T11:44:03;14.57;;;10.90;;
18042;SDS011;9146;48.074;11.968;2022-12-20T11:46:40;12.80;;;10.27;;
18042;SDS011;9146;48.074;11.968;2022-12-20T11:49:34;12.70;;;9.80;;
18042;SDS011;9146;48.074;11.968;2022-12-20T11:52:22;12.13;;;9.30;;
18042;SDS011;9146;48.074;11.968;2022-12-20T11:55:02;11.07;;;9.30;;
18042;SDS011;9146;48.074;11.968;2022-12-20T11:57:42;11.73;;;9.33;;
18042;SDS011;9146;48.074;11.968;2022-12-20T12:00:15;15.83;;;10.23;;
18042;SDS011;9146;48.074;11.968;2022-12-20T12:02:47;15.23;;;10.90;;
18042;SDS011;9146;48.074;11.968;2022-12-20T12:05:19;20.83;;;14.57;;
18042;SDS011;9146;48.074;11.968;2022-12-20T12:07:52;16.10;;;11.83;;
18042;SDS011;9146;48.074;11.968;2022-12-20T12:10:23;15.57;;;11.13;;
18042;SDS011;9146;48.074;11.968;2022-12-20T12:12:56;14.00;;;11.07;;
18042;SDS011;9146;48.074;11.968;2022-12-20T12:15:29;15.07;;;12.07;;
18042;SDS011;9146;48.074;11.968;2022-12-20T12:18:01;17.23;;;12.13;;
18042;SDS011;9146;48.074;11.968;2022-12-20T12:20:33;15.30;;;10.87;;
18042;SDS011;9146;48.074;11.968;2022-12-20T12:23:09;16.50;;;11.17;;
18042;SDS011;9146;48.074;11.968;2022-12-20T12:25:44;15.40;;;10.47;;
18042;SDS011;9146;48.074;11.968;2022-12-20T12:28:11;16.40;;;10.83;;
18042;SDS011;9146;48.074;11.968;2022-12-20T12:30:40;18.37;;;13.93;;
18042;SDS011;9146;48.074;11.968;2022-12-20T12:33:12;16.40;;;12.83;;
18042;SDS011;9146;48.074;11.968;2022-12-20T12:35:53;15.40;;;11.97;;
18042;SDS011;9146;48.074;11.968;2022-12-20T12:41:54;13.57;;;11.13;;
18042;SDS011;9146;48.074;11.968;2022-12-20T12:44:42;15.50;;;12.13;;
18042;SDS011;9146;48.074;11.968;2022-12-20T12:47:15;16.13;;;12.20;;
18042;SDS011;9146;48.074;11.968;2022-12-20T12:49:48;20.50;;;15.00;;
18042;SDS011;9146;48.074;11.968;2022-12-20T12:58:12;20.77;;;14.40;;
18042;SDS011;9146;48.074;11.968;2022-12-20T13:00:47;18.37;;;14.17;;
18042;SDS011;9146;48.074;11.968;2022-12-20T13:03:26;34.47;;;20.90;;
18042;SDS011;9146;48.074;11.968;2022-12-20T13:09:17;30.90;;;22.37;;
18042;SDS011;9146;48.074;11.968;2022-12-20T13:11:47;45.40;;;27.97;;
18042;SDS011;9146;48.074;11.968;2022-12-20T13:23:11;27.87;;;18.87;;
18042;SDS011;9146;48.074;11.968;2022-12-20T13:25:43;18.77;;;14.97;;
18042;SDS011;9146;48.074;11.968;2022-12-20T13:31:30;22.17;;;15.53;;
18042;SDS011;9146;48.074;11.968;2022-12-20T13:34:21;25.60;;;16.00;;
18042;SDS011;9146;48.074;11.968;2022-12-20T13:39:51;27.53;;;18.07;;
18042;SDS011;9146;48.074;11.968;2022-12-20T13:42:23;22.77;;;17.47;;
18042;SDS011;9146;48.074;11.968;2022-12-20T13:45:00;22.30;;;14.63;;
18042;SDS011;9146;48.074;11.968;2022-12-20T13:47:30;21.90;;;15.13;;
18042;SDS011;9146;48.074;11.968;2022-12-20T13:50:16;27.60;;;16.77;;
18042;SDS011;9146;48.074;11.968;2022-12-20T13:52:48;35.73;;;21.90;;
18042;SDS011;9146;48.074;11.968;2022-12-20T13:55:22;24.93;;;18.63;;
18042;SDS011;9146;48.074;11.968;2022-12-20T13:57:52;24.00;;;17.33;;
18042;SDS011;9146;48.074;11.968;2022-12-20T14:00:24;26.80;;;17.00;;
18042;SDS011;9146;48.074;11.968;2022-12-20T14:02:51;28.67;;;18.50;;
18042;SDS011;9146;48.074;11.968;2022-12-20T14:05:20;26.50;;;17.70;;
18042;SDS011;9146;48.074;11.968;2022-12-20T14:07:52;24.07;;;15.53;;
18042;SDS011;9146;48.074;11.968;2022-12-20T14:10:24;22.50;;;14.17;;
18042;SDS011;9146;48.074;11.968;2022-12-20T14:12:53;18.10;;;13.70;;
18042;SDS011;9146;48.074;11.968;2022-12-20T14:15:25;22.23;;;13.33;;
18042;SDS011;9146;48.074;11.968;2022-12-20T14:17:54;19.17;;;13.73;;
18042;SDS011;9146;48.074;11.968;2022-12-20T14:20:25;23.07;;;16.13;;
18042;SDS011;9146;48.074;11.968;2022-12-20T14:22:56;25.23;;;17.87;;
18042;SDS011;9146;48.074;11.968;2022-12-20T14:25:29;22.93;;;17.53;;
18042;SDS011;9146;48.074;11.968;2022-12-20T14:27:59;28.10;;;19.07;;
18042;SDS011;9146;48.074;11.968;2022-12-20T14:30:30;24.07;;;18.87;;
18042;SDS011;9146;48.074;11.968;2022-12-20T14:33:00;35.43;;;23.40;;
18042;SDS011;9146;48.074;11.968;2022-12-20T14:35:27;37.40;;;23.77;;
18042;SDS011;9146;48.074;11.968;2022-12-20T14:37:55;37.20;;;22.90;;
18042;SDS011;9146;48.074;11.968;2022-12-20T14:40:24;27.30;;;19.40;;
18042;SDS011;9146;48.074;11.968;2022-12-20T14:42:52;25.20;;;18.57;;
18042;SDS011;9146;48.074;11.968;2022-12-20T14:45:20;50.03;;;31.90;;
18042;SDS011;9146;48.074;11.968;2022-12-20T14:47:53;27.80;;;18.53;;
18042;SDS011;9146;48.074;11.968;2022-12-20T14:50:24;22.17;;;17.73;;
18042;SDS011;9146;48.074;11.968;2022-12-20T14:52:54;23.53;;;17.70;;
18042;SDS011;9146;48.074;11.968;2022-12-20T14:55:22;29.40;;;18.60;;
18042;SDS011;9146;48.074;11.968;2022-12-20T14:57:52;25.73;;;18.53;;
18042;SDS011;9146;48.074;11.968;2022-12-20T15:00:22;25.73;;;18.57;;
18042;SDS011;9146;48.074;11.968;2022-12-20T15:02:57;23.57;;;16.57;;
18042;SDS011;9146;48.074;11.968;2022-12-20T15:05:46;24.73;;;18.03;;
18042;SDS011;9146;48.074;11.968;2022-12-20T15:08:15;26.50;;;17.83;;
18042;SDS011;9146;48.074;11.968;2022-12-20T15:10:48;24.53;;;18.03;;
18042;SDS011;9146;48.074;11.968;2022-12-20T15:13:20;23.77;;;17.10;;
18042;SDS011;9146;48.074;11.968;2022-12-20T15:15:48;25.90;;;18.37;;
18042;SDS011;9146;48.074;11.968;2022-12-20T15:18:16;32.07;;;17.70;;